createdAt,value
2022-07-25T00:02:44.882Z,99.90
2022-07-25T00:07:47.353Z,99.90
2022-07-25T00:12:51.712Z,99.90
2022-07-25T00:17:54.328Z,99.90
2022-07-25T00:22:56.930Z,99.90
2022-07-25T00:27:59.650Z,99.90
2022-07-25T00:33:02.195Z,99.90
2022-07-25T00:38:04.861Z,99.90
2022-07-25T00:43:07.464Z,99.90
2022-07-25T00:48:10.250Z,99.90
2022-07-25T00:53:12.954Z,99.90
2022-07-25T00:58:16.702Z,99.90
2022-07-25T01:03:19.535Z,99.90
2022-07-25T01:08:22.648Z,99.90
2022-07-25T01:13:25.266Z,99.90
2022-07-25T01:18:27.815Z,99.90
2022-07-25T01:23:30.458Z,99.90
2022-07-25T01:28:33.007Z,99.90
2022-07-25T01:33:35.579Z,99.90
2022-07-25T01:38:38.090Z,99.90
2022-07-25T01:43:40.982Z,99.90
2022-07-25T01:48:43.601Z,99.90
2022-07-25T01:53:46.093Z,99.90
2022-07-25T01:58:50.092Z,99.90
2022-07-25T02:03:52.600Z,99.90
2022-07-25T02:08:55.182Z,99.90
2022-07-25T02:13:57.711Z,99.90
2022-07-25T02:19:00.248Z,99.90
2022-07-25T02:24:03.786Z,99.90
2022-07-25T02:29:06.639Z,99.90
2022-07-25T02:34:09.491Z,99.90
2022-07-25T02:39:13.098Z,99.90
2022-07-25T02:44:15.792Z,99.90
2022-07-25T02:49:18.464Z,99.90
2022-07-25T02:54:21.037Z,99.90
2022-07-25T02:59:23.628Z,99.90
2022-07-25T03:04:26.374Z,99.90
2022-07-25T03:09:28.924Z,99.90
2022-07-25T03:14:31.389Z,99.90
2022-07-25T03:19:33.915Z,99.90
2022-07-25T03:24:36.520Z,99.90
2022-07-25T03:29:39.392Z,99.90
2022-07-25T03:34:41.986Z,99.90
2022-07-25T03:39:44.505Z,99.90
2022-07-25T03:44:46.966Z,99.90
2022-07-25T03:49:49.447Z,99.90
2022-07-25T03:54:52.054Z,99.90
2022-07-25T03:59:54.627Z,99.90
2022-07-25T04:04:57.066Z,99.90
2022-07-25T04:09:59.670Z,99.90
2022-07-25T04:15:02.436Z,99.90
2022-07-25T04:20:06.251Z,99.90
2022-07-25T04:25:10.039Z,99.90
2022-07-25T04:30:13.221Z,99.90
2022-07-25T04:35:26.886Z,99.90
2022-07-25T04:40:29.661Z,99.90
2022-07-25T04:45:34.839Z,99.90
2022-07-25T04:50:37.650Z,99.90
2022-07-25T04:55:40.859Z,99.90
2022-07-25T05:00:43.858Z,99.90
2022-07-25T05:05:46.433Z,99.90
2022-07-25T05:10:49.104Z,99.90
2022-07-25T05:15:51.722Z,99.90
2022-07-25T05:20:54.278Z,99.90
2022-07-25T05:25:56.872Z,99.90
2022-07-25T05:31:00.528Z,99.90
2022-07-25T05:36:08.765Z,99.90
2022-07-25T05:41:11.278Z,99.90
2022-07-25T05:46:14.030Z,99.90
2022-07-25T05:51:16.606Z,99.90
2022-07-25T05:56:19.163Z,99.90
2022-07-25T06:01:21.873Z,99.90
2022-07-25T06:06:24.478Z,98.60
2022-07-25T06:11:30.673Z,96.50
2022-07-25T06:16:33.530Z,99.90
2022-07-25T06:21:37.182Z,99.90
2022-07-25T06:26:39.673Z,99.90
2022-07-25T06:31:42.479Z,99.90
2022-07-25T06:36:49.354Z,99.90
2022-07-25T06:41:52.053Z,99.90
2022-07-25T06:46:54.616Z,99.90
2022-07-25T06:51:57.398Z,99.90
2022-07-25T06:57:00.117Z,99.90
2022-07-25T07:02:02.576Z,99.90
2022-07-25T07:07:05.224Z,99.90
2022-07-25T07:12:08.774Z,99.90
2022-07-25T07:17:11.698Z,99.90
2022-07-25T07:22:14.223Z,99.90
2022-07-25T07:27:16.703Z,99.10
2022-07-25T07:32:21.778Z,99.90
2022-07-25T07:37:24.493Z,99.90
2022-07-25T07:42:27.103Z,99.90
2022-07-25T07:47:29.557Z,99.90
2022-07-25T07:52:32.144Z,99.90
2022-07-25T07:57:34.735Z,99.00
2022-07-25T08:02:44.542Z,98.70
2022-07-25T08:07:47.357Z,98.50
2022-07-25T08:12:50.430Z,98.40
2022-07-25T08:17:53.102Z,96.50
2022-07-25T08:22:56.704Z,97.70
2022-07-25T08:27:59.690Z,96.40
2022-07-25T08:33:05.269Z,96.40
2022-07-25T08:38:08.046Z,96.60
2022-07-25T08:43:14.817Z,95.30
2022-07-25T08:48:19.780Z,96.00
2022-07-25T08:53:38.911Z,96.20
2022-07-25T08:58:43.976Z,94.20
2022-07-25T09:03:47.005Z,92.80
2022-07-25T09:08:57.776Z,93.60
2022-07-25T09:14:10.627Z,93.50
2022-07-25T09:19:13.625Z,93.10
2022-07-25T09:24:18.582Z,92.20
2022-07-25T09:29:25.007Z,91.80
2022-07-25T09:34:34.777Z,92.00
2022-07-25T09:39:45.937Z,90.30
2022-07-25T09:45:06.439Z,90.50
2022-07-25T09:50:09.398Z,90.50
2022-07-25T09:55:14.139Z,87.90
2022-07-25T10:00:20.939Z,91.70
2022-07-25T10:05:58.292Z,90.20
2022-07-25T10:11:01.002Z,89.20
2022-07-25T10:16:14.490Z,89.00
2022-07-25T10:21:26.088Z,86.60
2022-07-25T10:26:31.446Z,88.60
2022-07-25T10:31:34.215Z,88.50
2022-07-25T10:36:48.412Z,84.60
2022-07-25T10:42:00.383Z,84.90
2022-07-25T10:47:14.326Z,89.10
2022-07-25T10:52:18.939Z,85.50
2022-07-25T10:57:21.590Z,85.30
2022-07-25T11:02:24.622Z,84.80
2022-07-25T11:07:28.888Z,80.80
2022-07-25T11:12:32.429Z,82.70
2022-07-25T11:17:35.714Z,79.90
2022-07-25T11:22:38.346Z,81.00
2022-07-25T11:27:41.102Z,84.60
2022-07-25T11:32:56.320Z,80.80
2022-07-25T11:38:02.295Z,77.60
2022-07-25T11:43:05.342Z,79.10
2022-07-25T11:48:15.026Z,78.50
2022-07-25T11:53:19.376Z,74.60
2022-07-25T11:58:24.047Z,77.00
2022-07-25T12:03:26.850Z,74.80
2022-07-25T12:08:38.893Z,78.30
2022-07-25T12:13:41.619Z,74.90
2022-07-25T12:18:44.178Z,75.70
2022-07-25T12:23:46.823Z,74.60
2022-07-25T12:28:49.493Z,76.80
2022-07-25T12:33:52.775Z,70.20
2022-07-25T12:38:55.262Z,76.20
2022-07-25T12:43:58.992Z,73.90
2022-07-25T12:49:03.074Z,69.90
2022-07-25T12:54:06.036Z,72.40
2022-07-25T12:59:09.235Z,71.40
2022-07-25T13:04:11.943Z,70.50
2022-07-25T13:09:14.509Z,70.00
2022-07-25T13:14:17.346Z,67.90
2022-07-25T13:19:19.952Z,67.90
2022-07-25T13:24:22.541Z,70.60
2022-07-25T13:29:25.308Z,66.50
2022-07-25T13:34:28.260Z,67.30
2022-07-25T13:39:30.909Z,67.80
2022-07-25T13:44:33.446Z,66.00
2022-07-25T13:49:37.088Z,66.00
2022-07-25T13:54:39.763Z,67.10
2022-07-25T13:59:42.426Z,68.40
2022-07-25T14:04:45.943Z,69.10
2022-07-25T14:09:48.584Z,66.30
2022-07-25T14:14:51.059Z,66.00
2022-07-25T14:19:53.577Z,66.30
2022-07-25T14:24:56.118Z,65.40
2022-07-25T14:29:58.785Z,68.10
2022-07-25T14:35:02.451Z,64.40
2022-07-25T14:40:06.058Z,67.70
2022-07-25T14:45:10.065Z,66.90
2022-07-25T14:50:12.719Z,68.20
2022-07-25T14:55:15.279Z,65.30
2022-07-25T15:00:18.084Z,64.80
2022-07-25T15:05:28.900Z,66.10
2022-07-25T15:10:31.346Z,66.50
2022-07-25T15:15:33.949Z,68.70
2022-07-25T15:20:36.398Z,64.10
2022-07-25T15:26:01.361Z,62.60
2022-07-25T15:31:01.767Z,63.40
2022-07-25T15:36:05.314Z,64.10
2022-07-25T15:41:10.749Z,64.70
2022-07-25T15:46:14.600Z,66.20
2022-07-25T15:51:17.223Z,66.00
2022-07-25T15:56:19.952Z,64.50
2022-07-25T16:01:22.799Z,64.70
2022-07-25T16:06:26.107Z,65.50
2022-07-25T16:11:28.878Z,63.70
2022-07-25T16:16:31.541Z,64.50
2022-07-25T16:21:34.092Z,64.40
2022-07-25T16:26:37.123Z,62.90
2022-07-25T16:31:39.625Z,64.20
2022-07-25T16:36:42.231Z,64.00
2022-07-25T16:41:45.374Z,64.40
2022-07-25T16:46:47.989Z,64.50
2022-07-25T16:51:52.738Z,63.20
2022-07-25T16:56:59.785Z,67.10
2022-07-25T17:02:03.927Z,63.40
2022-07-25T17:07:06.833Z,61.30
2022-07-25T17:12:09.434Z,60.20
2022-07-25T17:17:12.442Z,62.00
2022-07-25T17:22:15.125Z,60.00
2022-07-25T17:27:17.666Z,60.00
2022-07-25T17:32:20.344Z,61.00
2022-07-25T17:37:24.398Z,63.70
2022-07-25T17:42:26.964Z,62.50
2022-07-25T17:47:29.548Z,65.10
2022-07-25T17:52:32.546Z,67.20
2022-07-25T17:57:35.179Z,70.50
2022-07-25T18:02:40.734Z,73.30
2022-07-25T18:07:49.653Z,75.40
2022-07-25T18:12:52.346Z,79.30
2022-07-25T18:17:55.212Z,81.40
2022-07-25T18:22:58.734Z,84.20
2022-07-25T18:28:01.855Z,86.80
2022-07-25T18:33:04.612Z,88.90
2022-07-25T18:38:07.246Z,92.00
2022-07-25T18:43:10.129Z,94.70
2022-07-25T18:48:13.741Z,94.80
2022-07-25T18:53:16.219Z,93.70
2022-07-25T18:58:18.923Z,92.50
2022-07-25T19:03:21.476Z,93.10
2022-07-25T19:08:24.286Z,93.30
2022-07-25T19:13:48.158Z,93.10
2022-07-25T19:18:49.667Z,93.00
2022-07-25T19:23:52.247Z,92.50
2022-07-25T19:28:54.835Z,92.60
2022-07-25T19:33:57.422Z,92.30
2022-07-25T19:39:00.666Z,92.40
2022-07-25T19:44:03.469Z,92.60
2022-07-25T19:49:06.363Z,92.90
2022-07-25T19:54:09.856Z,93.00
2022-07-25T19:59:12.908Z,93.40
2022-07-25T20:04:16.372Z,93.80
2022-07-25T20:09:19.245Z,93.70
2022-07-25T20:14:21.834Z,94.10
2022-07-25T20:19:24.335Z,93.90
2022-07-25T20:24:27.178Z,94.20
2022-07-25T20:29:29.730Z,94.00
2022-07-25T20:34:32.570Z,93.70
2022-07-25T20:39:35.096Z,93.50
2022-07-25T20:44:37.778Z,94.30
2022-07-25T20:49:40.491Z,94.00
2022-07-25T20:54:43.170Z,94.20
2022-07-25T20:59:46.060Z,94.60
2022-07-25T21:04:48.812Z,95.10
2022-07-25T21:09:51.611Z,95.50
2022-07-25T21:14:54.209Z,96.10
2022-07-25T21:19:56.847Z,96.50
2022-07-25T21:24:59.380Z,97.00
2022-07-25T21:30:02.337Z,96.90
2022-07-25T21:35:05.716Z,97.20
2022-07-25T21:40:09.001Z,97.20
2022-07-25T21:45:12.506Z,97.40
2022-07-25T21:50:34.082Z,97.80
2022-07-25T21:55:36.898Z,98.50
2022-07-25T22:00:43.873Z,97.80
2022-07-25T22:05:48.567Z,97.60
2022-07-25T22:10:51.228Z,97.40
2022-07-25T22:15:54.612Z,97.20
2022-07-25T22:20:57.114Z,97.40
2022-07-25T22:25:59.863Z,97.60
2022-07-25T22:31:02.324Z,98.10
2022-07-25T22:36:05.744Z,97.70
2022-07-25T22:41:08.364Z,97.70
2022-07-25T22:46:11.857Z,98.00
2022-07-25T22:51:17.986Z,98.30
2022-07-25T22:56:21.214Z,98.70
2022-07-25T23:01:24.246Z,99.10
2022-07-25T23:06:26.757Z,99.90
2022-07-25T23:11:29.492Z,99.90
2022-07-25T23:16:32.234Z,99.90
2022-07-25T23:21:35.151Z,99.90
2022-07-25T23:26:37.707Z,99.90
2022-07-25T23:31:40.261Z,99.90
2022-07-25T23:36:42.949Z,99.90
2022-07-25T23:41:45.419Z,99.80
2022-07-25T23:46:48.064Z,99.90
2022-07-25T23:51:50.603Z,99.90
2022-07-25T23:56:53.646Z,99.90
